createdAt,value
2022-09-02T00:01:43.702Z,54.26
2022-09-02T00:04:17.500Z,54.06
2022-09-02T00:06:45.856Z,54.40
2022-09-02T00:09:14.618Z,54.50
2022-09-02T00:11:43.054Z,54.68
2022-09-02T00:14:14.938Z,54.57
2022-09-02T00:16:52.183Z,54.71
2022-09-02T00:19:21.701Z,54.70
2022-09-02T00:21:49.337Z,54.74
2022-09-02T00:24:17.178Z,55.09
2022-09-02T00:26:44.713Z,55.01
2022-09-02T00:29:13.194Z,55.04
2022-09-02T00:31:40.570Z,55.10
2022-09-02T00:34:08.283Z,55.13
2022-09-02T00:36:35.327Z,55.42
2022-09-02T00:39:04.134Z,55.50
2022-09-02T00:41:32.610Z,55.52
2022-09-02T00:44:14.396Z,55.39
2022-09-02T00:46:48.646Z,55.51
2022-09-02T00:49:28.709Z,55.55
2022-09-02T00:52:04.240Z,55.36
2022-09-02T00:54:33.822Z,55.52
2022-09-02T00:57:02.651Z,55.44
2022-09-02T00:59:58.359Z,55.57
2022-09-02T01:02:26.393Z,55.73
2022-09-02T01:04:57.069Z,55.49
2022-09-02T01:07:26.199Z,55.54
2022-09-02T01:09:55.718Z,55.70
2022-09-02T01:12:30.165Z,55.51
2022-09-02T01:14:58.230Z,55.84
2022-09-02T01:17:26.286Z,56.09
2022-09-02T01:19:57.362Z,55.82
2022-09-02T01:22:26.874Z,55.87
2022-09-02T01:24:55.079Z,55.71
2022-09-02T01:27:23.333Z,55.60
2022-09-02T01:29:58.022Z,56.01
2022-09-02T01:32:26.442Z,55.92
2022-09-02T01:34:54.118Z,55.83
2022-09-02T01:37:21.866Z,55.51
2022-09-02T01:39:49.788Z,55.59
2022-09-02T01:42:16.622Z,55.64
2022-09-02T01:44:46.085Z,55.81
2022-09-02T01:47:16.586Z,56.19
2022-09-02T01:49:46.563Z,55.93
2022-09-02T01:52:14.286Z,56.28
2022-09-02T01:54:41.452Z,56.39
2022-09-02T01:57:08.977Z,56.02
2022-09-02T01:59:35.886Z,56.05
2022-09-02T02:02:03.835Z,56.06
2022-09-02T02:04:32.555Z,56.02
2022-09-02T02:06:59.798Z,56.63
2022-09-02T02:09:27.597Z,56.78
2022-09-02T02:11:54.626Z,56.63
2022-09-02T02:14:22.558Z,56.39
2022-09-02T02:16:50.518Z,56.63
2022-09-02T02:19:18.125Z,56.25
2022-09-02T02:21:44.821Z,56.57
2022-09-02T02:24:12.013Z,56.82
2022-09-02T02:26:38.777Z,56.75
2022-09-02T02:29:07.673Z,56.67
2022-09-02T02:31:35.996Z,56.77
2022-09-02T02:34:04.235Z,56.22
2022-09-02T02:36:32.886Z,56.43
2022-09-02T02:39:01.541Z,56.32
2022-09-02T02:41:30.590Z,56.40
2022-09-02T02:43:57.577Z,56.40
2022-09-02T02:46:25.367Z,56.26
2022-09-02T02:48:53.555Z,56.13
2022-09-02T02:51:20.431Z,56.01
2022-09-02T02:53:48.650Z,56.22
2022-09-02T02:56:15.473Z,56.40
2022-09-02T02:58:42.456Z,56.39
2022-09-02T03:01:09.678Z,56.16
2022-09-02T03:03:36.474Z,56.28
2022-09-02T03:06:04.433Z,56.33
2022-09-02T03:08:32.094Z,56.38
2022-09-02T03:10:59.983Z,56.45
2022-09-02T03:13:29.923Z,56.55
2022-09-02T03:16:01.044Z,56.11
2022-09-02T03:18:27.863Z,56.42
2022-09-02T03:20:56.139Z,56.38
2022-09-02T03:23:23.613Z,56.18
2022-09-02T03:25:50.719Z,56.52
2022-09-02T03:28:27.540Z,56.56
2022-09-02T03:30:54.976Z,57.04
2022-09-02T03:33:23.396Z,57.02
2022-09-02T03:35:51.563Z,56.87
2022-09-02T03:38:18.842Z,56.89
2022-09-02T03:40:45.809Z,57.07
2022-09-02T03:43:12.590Z,56.71
2022-09-02T03:45:41.858Z,56.40
2022-09-02T03:48:12.829Z,56.54
2022-09-02T03:50:42.428Z,56.63
2022-09-02T03:53:18.099Z,56.60
2022-09-02T03:55:50.838Z,56.16
2022-09-02T03:58:19.884Z,56.38
2022-09-02T04:00:53.401Z,56.60
2022-09-02T04:03:22.693Z,56.32
2022-09-02T04:05:52.304Z,56.24
2022-09-02T04:08:20.249Z,56.39
2022-09-02T04:10:47.913Z,56.25
2022-09-02T04:13:14.725Z,56.27
2022-09-02T04:15:48.379Z,56.46
2022-09-02T04:18:17.805Z,56.45
2022-09-02T04:20:45.278Z,56.56
2022-09-02T04:23:12.607Z,56.28
2022-09-02T04:25:43.541Z,56.61
2022-09-02T04:28:13.113Z,56.64
2022-09-02T04:30:41.110Z,56.61
2022-09-02T04:33:07.962Z,56.43
2022-09-02T04:35:36.053Z,56.56
2022-09-02T04:38:03.208Z,56.45
2022-09-02T04:40:31.531Z,56.57
2022-09-02T04:42:58.829Z,56.47
2022-09-02T04:45:29.739Z,56.33
2022-09-02T04:47:58.049Z,56.54
2022-09-02T04:50:26.182Z,56.34
2022-09-02T04:53:00.275Z,56.60
2022-09-02T04:55:30.892Z,56.56
2022-09-02T04:57:58.825Z,56.64
2022-09-02T05:00:26.801Z,56.44
2022-09-02T05:02:54.606Z,56.48
2022-09-02T05:05:23.525Z,56.48
2022-09-02T05:08:00.503Z,56.33
2022-09-02T05:10:32.916Z,56.40
2022-09-02T05:13:00.621Z,56.61
2022-09-02T05:15:28.877Z,56.78
2022-09-02T05:17:59.250Z,56.60
2022-09-02T05:20:27.941Z,56.60
2022-09-02T05:23:09.387Z,56.24
2022-09-02T05:25:44.223Z,56.39
2022-09-02T05:28:23.011Z,56.70
2022-09-02T05:30:51.169Z,56.31
2022-09-02T05:33:18.338Z,56.50
2022-09-02T05:35:50.035Z,56.62
2022-09-02T05:38:18.049Z,56.38
2022-09-02T05:40:46.896Z,56.29
2022-09-02T05:43:14.254Z,56.18
2022-09-02T05:45:41.699Z,55.98
2022-09-02T05:48:28.548Z,56.24
2022-09-02T05:50:57.690Z,55.68
2022-09-02T05:53:27.022Z,55.75
2022-09-02T05:55:53.985Z,55.62
2022-09-02T05:58:21.235Z,55.52
2022-09-02T06:00:48.629Z,55.68
2022-09-02T06:03:18.401Z,55.71
2022-09-02T06:05:56.535Z,55.53
2022-09-02T06:08:24.459Z,55.23
2022-09-02T06:10:51.829Z,55.07
2022-09-02T06:13:22.778Z,55.14
2022-09-02T06:15:52.029Z,55.47
2022-09-02T06:18:21.948Z,55.20
2022-09-02T06:20:51.354Z,54.99
2022-09-02T06:23:18.591Z,54.93
2022-09-02T06:25:47.794Z,55.10
2022-09-02T06:28:15.687Z,54.74
2022-09-02T06:30:45.902Z,55.02
2022-09-02T06:33:13.090Z,54.88
2022-09-02T06:35:45.487Z,54.74
2022-09-02T06:38:15.503Z,54.65
2022-09-02T06:40:52.003Z,54.61
2022-09-02T06:43:24.271Z,54.67
2022-09-02T06:46:06.742Z,54.55
2022-09-02T06:48:35.323Z,54.46
2022-09-02T06:51:02.093Z,54.63
2022-09-02T06:53:28.917Z,54.50
2022-09-02T06:55:55.920Z,54.31
2022-09-02T06:58:22.737Z,54.26
2022-09-02T07:00:49.566Z,54.42
2022-09-02T07:03:35.059Z,54.36
2022-09-02T07:06:10.949Z,54.19
2022-09-02T07:08:43.528Z,54.11
2022-09-02T07:11:22.157Z,54.45
2022-09-02T07:13:51.285Z,54.26
2022-09-02T07:16:26.856Z,54.05
2022-09-02T07:18:56.895Z,54.23
2022-09-02T07:21:24.669Z,54.21
2022-09-02T07:23:53.045Z,53.96
2022-09-02T07:26:19.863Z,54.14
2022-09-02T07:28:47.122Z,54.28
2022-09-02T07:31:15.959Z,54.34
2022-09-02T07:33:45.074Z,54.13
2022-09-02T07:36:16.981Z,54.28
2022-09-02T07:38:44.407Z,53.74
2022-09-02T07:41:13.233Z,53.84
2022-09-02T07:43:41.371Z,53.81
2022-09-02T07:46:09.464Z,53.74
2022-09-02T07:48:36.953Z,54.03
2022-09-02T07:51:04.589Z,54.04
2022-09-02T07:53:32.436Z,53.99
2022-09-02T07:56:00.254Z,53.80
2022-09-02T07:58:29.081Z,53.64
2022-09-02T08:01:00.781Z,53.40
2022-09-02T08:03:27.665Z,53.00
2022-09-02T08:05:57.562Z,53.08
2022-09-02T08:08:26.266Z,52.47
2022-09-02T08:10:54.336Z,52.49
2022-09-02T08:13:22.017Z,52.60
2022-09-02T08:15:54.620Z,52.04
2022-09-02T08:18:22.523Z,52.01
2022-09-02T08:20:49.712Z,51.87
2022-09-02T08:23:19.627Z,51.78
2022-09-02T08:26:03.491Z,51.17
2022-09-02T08:28:32.089Z,50.75
2022-09-02T08:30:59.393Z,50.70
2022-09-02T08:33:26.536Z,50.32
2022-09-02T08:35:53.305Z,50.38
2022-09-02T08:38:22.104Z,49.96
2022-09-02T08:40:49.811Z,49.54
2022-09-02T08:43:40.346Z,49.59
2022-09-02T08:46:11.287Z,48.96
2022-09-02T08:48:41.419Z,48.65
2022-09-02T08:51:19.085Z,48.35
2022-09-02T08:53:59.016Z,48.66
2022-09-02T08:56:28.157Z,48.31
2022-09-02T08:58:58.562Z,47.56
2022-09-02T09:01:31.325Z,47.50
2022-09-02T09:04:11.686Z,47.17
2022-09-02T09:06:56.978Z,47.15
2022-09-02T09:09:54.378Z,46.85
2022-09-02T09:12:42.686Z,45.98
2022-09-02T09:15:16.544Z,45.51
2022-09-02T09:17:47.799Z,45.69
2022-09-02T09:20:19.648Z,44.70
2022-09-02T09:22:48.676Z,44.45
2022-09-02T09:25:16.673Z,43.77
2022-09-02T09:27:46.203Z,43.63
2022-09-02T09:30:15.469Z,43.08
2022-09-02T09:33:00.354Z,43.34
2022-09-02T09:35:29.062Z,42.94
2022-09-02T09:37:56.385Z,42.91
2022-09-02T09:40:33.480Z,42.55
2022-09-02T09:43:05.386Z,42.23
2022-09-02T09:45:41.941Z,42.40
2022-09-02T09:48:25.710Z,41.69
2022-09-02T09:50:55.374Z,41.32
2022-09-02T09:53:30.781Z,40.96
2022-09-02T09:56:06.622Z,40.99
2022-09-02T09:58:44.458Z,41.06
2022-09-02T10:01:34.523Z,40.92
2022-09-02T10:04:41.926Z,40.68
2022-09-02T10:07:11.721Z,41.09
2022-09-02T10:09:38.440Z,40.43
2022-09-02T10:12:08.018Z,40.86
2022-09-02T10:14:38.709Z,40.62
2022-09-02T10:17:16.485Z,40.10
2022-09-02T10:19:54.270Z,40.23
2022-09-02T10:22:59.726Z,40.19
2022-09-02T10:25:36.127Z,39.34
2022-09-02T10:28:21.355Z,39.46
2022-09-02T10:31:17.915Z,39.00
2022-09-02T10:34:06.519Z,38.90
2022-09-02T10:36:57.211Z,39.17
2022-09-02T10:39:39.954Z,39.23
2022-09-02T10:42:19.267Z,39.14
2022-09-02T10:45:12.227Z,38.87
2022-09-02T10:47:40.441Z,38.96
2022-09-02T10:50:26.922Z,38.61
2022-09-02T10:53:33.111Z,38.85
2022-09-02T10:56:08.876Z,39.09
2022-09-02T11:01:33.651Z,38.26
2022-09-02T11:04:22.635Z,38.65
2022-09-02T11:07:02.479Z,37.95
2022-09-02T11:09:37.213Z,38.20
2022-09-02T11:12:07.706Z,37.87
2022-09-02T11:15:04.370Z,38.31
2022-09-02T11:17:49.466Z,38.23
2022-09-02T11:20:27.074Z,38.05
2022-09-02T11:23:02.534Z,38.30
2022-09-02T11:25:38.615Z,37.79
2022-09-02T11:28:23.887Z,37.40
2022-09-02T11:31:07.893Z,37.55
2022-09-02T11:36:41.194Z,36.97
2022-09-02T11:39:25.790Z,37.10
2022-09-02T11:42:18.226Z,36.95
2022-09-02T11:44:52.167Z,36.61
2022-09-02T11:47:25.773Z,36.76
2022-09-02T11:49:52.632Z,37.21
2022-09-02T11:52:59.183Z,36.84
2022-09-02T11:55:32.926Z,37.04
2022-09-02T11:58:01.060Z,36.39
2022-09-02T12:00:58.517Z,36.39
2022-09-02T12:03:46.941Z,36.28
2022-09-02T12:06:29.056Z,35.95
2022-09-02T12:08:58.011Z,36.51
2022-09-02T12:11:55.149Z,36.54
2022-09-02T12:14:24.899Z,36.13
2022-09-02T12:17:12.503Z,36.48
2022-09-02T12:19:42.398Z,36.10
2022-09-02T12:22:21.755Z,35.93
2022-09-02T12:24:54.919Z,35.87
2022-09-02T12:31:41.127Z,35.37
2022-09-02T12:34:25.920Z,35.54
2022-09-02T12:36:57.411Z,35.31
2022-09-02T12:39:30.796Z,35.32
2022-09-02T12:42:25.997Z,36.03
2022-09-02T12:45:13.115Z,36.10
2022-09-02T12:48:44.855Z,36.08
2022-09-02T12:52:11.606Z,35.71
2022-09-02T12:54:49.318Z,35.85
2022-09-02T13:00:54.979Z,35.48
2022-09-02T13:03:32.568Z,34.93
2022-09-02T13:06:18.273Z,34.96
2022-09-02T13:09:00.185Z,35.14
2022-09-02T13:12:02.070Z,34.95
2022-09-02T13:14:47.514Z,35.08
2022-09-02T13:17:36.936Z,35.14
2022-09-02T13:20:20.190Z,35.07
2022-09-02T13:22:46.918Z,35.00
2022-09-02T13:25:41.756Z,34.88
2022-09-02T13:28:29.323Z,34.63
2022-09-02T13:31:26.525Z,34.35
2022-09-02T13:34:08.228Z,33.96
2022-09-02T13:36:46.879Z,34.34
2022-09-02T13:39:18.329Z,34.13
2022-09-02T13:41:46.913Z,34.35
2022-09-02T13:44:23.292Z,34.31
2022-09-02T13:47:17.816Z,34.16
2022-09-02T13:49:46.966Z,34.13
2022-09-02T13:52:17.705Z,33.96
2022-09-02T13:54:47.740Z,34.12
2022-09-02T13:57:19.534Z,34.07
2022-09-02T13:59:52.767Z,34.14
2022-09-02T14:02:35.739Z,33.67
2022-09-02T14:05:06.685Z,33.70
2022-09-02T14:07:38.157Z,33.92
2022-09-02T14:10:08.209Z,33.62
2022-09-02T14:12:36.894Z,33.61
2022-09-02T14:15:06.539Z,33.71
2022-09-02T14:17:35.290Z,33.52
2022-09-02T14:20:28.121Z,33.75
2022-09-02T14:22:58.436Z,33.70
2022-09-02T14:25:36.490Z,33.69
2022-09-02T14:28:11.332Z,33.53
2022-09-02T14:30:40.118Z,33.12
2022-09-02T14:33:36.267Z,32.89
2022-09-02T14:36:06.867Z,32.96
2022-09-02T14:38:37.628Z,33.16
2022-09-02T14:41:27.448Z,33.61
2022-09-02T14:43:59.606Z,34.51
2022-09-02T14:46:29.328Z,34.66
2022-09-02T14:49:10.637Z,35.25
2022-09-02T14:51:44.219Z,35.26
2022-09-02T14:54:11.728Z,35.28
2022-09-02T14:56:46.834Z,35.55
2022-09-02T14:59:13.598Z,35.47
2022-09-02T15:01:41.709Z,36.03
2022-09-02T15:04:09.530Z,35.87
2022-09-02T15:06:36.503Z,36.33
2022-09-02T15:09:04.318Z,36.12
2022-09-02T15:11:31.360Z,36.65
2022-09-02T15:13:58.143Z,36.91
2022-09-02T15:16:25.452Z,36.85
2022-09-02T15:18:52.381Z,37.05
2022-09-02T15:21:20.491Z,36.87
2022-09-02T15:23:51.078Z,37.00
2022-09-02T15:26:18.236Z,37.03
2022-09-02T15:28:45.568Z,37.43
2022-09-02T15:31:12.818Z,37.69
2022-09-02T15:33:41.481Z,37.54
2022-09-02T15:36:10.689Z,37.54
2022-09-02T15:38:37.980Z,37.84
2022-09-02T15:41:29.791Z,38.31
2022-09-02T15:43:59.663Z,39.50
2022-09-02T15:46:28.441Z,41.32
2022-09-02T15:49:00.321Z,41.95
2022-09-02T15:51:29.160Z,41.90
2022-09-02T15:54:04.791Z,42.40
2022-09-02T15:56:32.897Z,42.26
2022-09-02T15:59:04.866Z,42.63
2022-09-02T16:01:34.391Z,42.63
2022-09-02T16:04:02.448Z,43.11
2022-09-02T16:06:30.592Z,43.12
2022-09-02T16:08:57.714Z,43.55
2022-09-02T16:11:24.575Z,43.94
2022-09-02T16:13:51.980Z,44.61
2022-09-02T16:16:22.506Z,45.07
2022-09-02T16:18:51.725Z,45.31
2022-09-02T16:21:20.394Z,45.96
2022-09-02T16:23:49.262Z,47.02
2022-09-02T16:26:23.897Z,47.37
2022-09-02T16:28:52.931Z,47.15
2022-09-02T16:31:20.786Z,46.97
2022-09-02T16:33:58.006Z,47.04
2022-09-02T16:36:31.916Z,47.42
2022-09-02T16:39:01.155Z,47.73
2022-09-02T16:41:29.040Z,47.90
2022-09-02T16:43:59.968Z,48.28
2022-09-02T16:46:28.250Z,49.12
2022-09-02T16:48:58.431Z,49.46
2022-09-02T16:51:25.801Z,48.94
2022-09-02T16:53:59.874Z,49.69
2022-09-02T16:56:27.245Z,49.99
2022-09-02T16:58:54.662Z,49.95
2022-09-02T17:01:22.515Z,49.94
2022-09-02T17:03:50.628Z,50.37
2022-09-02T17:06:18.232Z,50.43
2022-09-02T17:08:44.949Z,50.94
2022-09-02T17:11:20.709Z,51.14
2022-09-02T17:13:55.905Z,51.36
2022-09-02T17:16:24.574Z,51.92
2022-09-02T17:18:51.302Z,52.00
2022-09-02T17:21:27.798Z,52.04
2022-09-02T17:23:55.114Z,51.89
2022-09-02T17:26:23.694Z,52.09
2022-09-02T17:28:53.259Z,51.95
2022-09-02T17:31:28.213Z,52.14
2022-09-02T17:33:56.869Z,52.58
2022-09-02T17:36:26.021Z,53.00
2022-09-02T17:38:57.174Z,53.22
2022-09-02T17:41:43.727Z,53.22
2022-09-02T17:44:11.719Z,52.90
2022-09-02T17:46:38.525Z,53.31
2022-09-02T17:49:16.718Z,52.97
2022-09-02T17:51:44.590Z,53.40
2022-09-02T17:54:12.550Z,53.22
2022-09-02T17:56:48.801Z,53.57
2022-09-02T17:59:37.936Z,53.44
2022-09-02T18:02:29.602Z,53.77
2022-09-02T18:05:07.686Z,54.23
2022-09-02T18:07:53.717Z,54.00
2022-09-02T18:10:20.555Z,54.59
2022-09-02T18:12:48.081Z,54.17
2022-09-02T18:15:17.925Z,54.72
2022-09-02T18:17:49.778Z,54.78
2022-09-02T18:20:19.602Z,54.59
2022-09-02T18:22:49.342Z,54.71
2022-09-02T18:25:38.144Z,54.90
2022-09-02T18:28:34.241Z,55.21
2022-09-02T18:31:15.701Z,55.50
2022-09-02T18:34:11.834Z,55.28
2022-09-02T18:37:06.262Z,55.20
2022-09-02T18:40:03.247Z,55.47
2022-09-02T18:42:50.566Z,55.39
2022-09-02T18:45:52.032Z,55.35
2022-09-02T18:48:39.091Z,55.73
2022-09-02T18:51:30.535Z,55.77
2022-09-02T18:54:04.958Z,56.03
2022-09-02T18:56:33.762Z,55.64
2022-09-02T18:59:10.810Z,55.77
2022-09-02T19:01:44.306Z,55.79
2022-09-02T19:04:11.182Z,56.09
2022-09-02T19:06:38.126Z,56.09
2022-09-02T19:09:12.630Z,56.04
2022-09-02T19:11:40.130Z,56.09
2022-09-02T19:14:26.482Z,55.88
2022-09-02T19:16:54.493Z,55.98
2022-09-02T19:19:21.263Z,56.16
2022-09-02T19:21:51.773Z,55.96
2022-09-02T19:24:26.014Z,56.11
2022-09-02T19:26:57.721Z,56.18
2022-09-02T19:29:25.521Z,56.04
2022-09-02T19:31:54.559Z,56.39
2022-09-02T19:34:22.069Z,56.05
2022-09-02T19:36:49.881Z,56.50
2022-09-02T19:39:16.805Z,56.46
2022-09-02T19:41:43.562Z,56.55
2022-09-02T19:44:12.558Z,56.54
2022-09-02T19:47:20.948Z,56.47
2022-09-02T19:49:28.398Z,56.71
2022-09-02T19:51:56.081Z,56.81
2022-09-02T19:54:23.227Z,56.78
2022-09-02T19:56:50.076Z,56.70
2022-09-02T19:59:17.118Z,56.61
2022-09-02T20:01:43.904Z,57.05
2022-09-02T20:04:11.637Z,56.83
2022-09-02T20:06:38.476Z,57.06
2022-09-02T20:09:06.242Z,56.84
2022-09-02T20:11:34.213Z,57.02
2022-09-02T20:14:04.354Z,56.74
2022-09-02T20:16:32.947Z,56.62
2022-09-02T20:18:59.771Z,56.84
2022-09-02T20:21:31.268Z,56.63
2022-09-02T20:24:08.978Z,56.61
2022-09-02T20:26:51.394Z,56.91
2022-09-02T20:29:31.940Z,56.71
2022-09-02T20:32:18.859Z,56.89
2022-09-02T20:35:03.979Z,56.58
2022-09-02T20:37:33.488Z,56.69
2022-09-02T20:40:27.020Z,57.13
2022-09-02T20:43:12.635Z,57.37
2022-09-02T20:45:40.926Z,57.07
2022-09-02T20:48:10.437Z,56.94
2022-09-02T20:50:43.308Z,57.12
2022-09-02T20:53:36.042Z,57.57
2022-09-02T20:56:12.167Z,57.48
2022-09-02T20:59:00.291Z,57.17
2022-09-02T21:01:35.653Z,57.58
2022-09-02T21:04:12.946Z,57.21
2022-09-02T21:06:51.213Z,57.58
2022-09-02T21:09:27.263Z,57.50
2022-09-02T21:11:58.614Z,57.32
2022-09-02T21:14:28.519Z,57.20
2022-09-02T21:17:05.858Z,57.67
2022-09-02T21:19:39.454Z,57.30
2022-09-02T21:22:29.070Z,57.45
2022-09-02T21:25:22.126Z,57.81
2022-09-02T21:28:06.265Z,57.75
2022-09-02T21:30:38.346Z,57.31
2022-09-02T21:33:09.199Z,57.48
2022-09-02T21:35:45.203Z,57.42
2022-09-02T21:38:27.599Z,57.52
2022-09-02T21:41:03.878Z,57.46
2022-09-02T21:43:41.105Z,57.66
2022-09-02T21:46:07.887Z,57.49
2022-09-02T21:48:57.326Z,57.69
2022-09-02T21:51:37.149Z,57.43
2022-09-02T21:54:13.191Z,57.50
2022-09-02T21:56:49.000Z,57.67
2022-09-02T21:59:45.145Z,57.71
2022-09-02T22:02:33.455Z,57.55
2022-09-02T22:05:06.045Z,57.45
2022-09-02T22:07:39.247Z,57.72
2022-09-02T22:10:28.937Z,57.69
2022-09-02T22:13:03.131Z,57.74
2022-09-02T22:15:59.199Z,57.85
2022-09-02T22:19:00.348Z,57.82
2022-09-02T22:21:39.650Z,57.69
2022-09-02T22:24:06.837Z,57.64
2022-09-02T22:26:43.799Z,57.58
2022-09-02T22:29:17.301Z,57.97
2022-09-02T22:31:45.280Z,57.86
2022-09-02T22:34:16.135Z,57.66
2022-09-02T22:37:00.149Z,58.03
2022-09-02T22:39:34.384Z,57.79
2022-09-02T22:42:17.806Z,57.80
2022-09-02T22:45:07.957Z,57.91
2022-09-02T22:47:54.965Z,58.19
2022-09-02T22:50:45.375Z,57.89
2022-09-02T22:53:12.962Z,57.95
2022-09-02T22:55:46.372Z,57.93
2022-09-02T22:58:48.017Z,58.12
2022-09-02T23:01:32.579Z,58.31
2022-09-02T23:04:02.435Z,58.25
2022-09-02T23:06:31.201Z,58.40
2022-09-02T23:09:11.570Z,58.08
2022-09-02T23:11:41.250Z,57.87
2022-09-02T23:14:29.598Z,57.94
2022-09-02T23:17:40.738Z,58.07
2022-09-02T23:20:27.646Z,58.14
2022-09-02T23:23:05.963Z,58.41
2022-09-02T23:25:37.839Z,58.04
2022-09-02T23:28:14.856Z,58.45
2022-09-02T23:30:49.076Z,58.39
2022-09-02T23:33:31.950Z,58.48
2022-09-02T23:36:13.870Z,58.32
2022-09-02T23:38:44.974Z,57.92
2022-09-02T23:41:12.547Z,58.04
2022-09-02T23:43:41.885Z,58.17
2022-09-02T23:46:14.732Z,58.48
2022-09-02T23:48:44.171Z,58.22
2022-09-02T23:51:48.404Z,58.51
2022-09-02T23:54:41.401Z,58.87
2022-09-02T23:57:27.314Z,58.82
